Raleigh, North Dakota
Current Conditions -  °F | °C
As of 2:35 AM on Friday 31 Oct 2014 (Local Time) from KY19 Reporting Station
Broken Clouds Broken Clouds  
Wind Chill: 14°   Ceiling: 1700
Heat Index: 21°   Visibility: 10mi
Dew Point: 19°   Wind: 6mph
Humidity: 93%   Direction: 110°ESE
Pressure: 30.56"   Gusts: NA
Location:  46.36°N, 101.31°W
Report Text: KY19 310835Z AUTO 11005KT 10SM BKN017 M06/M07 A3056 RMK AO2
Loading
Personal Weather Stations






























Interactive Weather Map New forecast layout! Learn more

10-Day Weather Forecast

Advertisements
Track Severe Weather on mobile